createdAt,value
2018-12-14T00:00:20.383Z,18.57
2018-12-14T00:02:52.107Z,17.90
2018-12-14T00:05:34.423Z,20.97
2018-12-14T00:08:15.831Z,20.13
2018-12-14T00:10:47.279Z,22.00
2018-12-14T00:13:19.122Z,19.67
2018-12-14T00:15:50.183Z,18.90
2018-12-14T00:18:21.221Z,20.30
2018-12-14T00:20:52.785Z,23.13
2018-12-14T00:23:22.428Z,17.27
2018-12-14T00:25:54.212Z,21.03
2018-12-14T00:28:25.129Z,20.23
2018-12-14T00:30:55.729Z,19.07
2018-12-14T00:33:36.101Z,18.33
2018-12-14T00:36:07.936Z,20.00
2018-12-14T00:38:39.687Z,18.17
2018-12-14T00:41:10.906Z,19.37
2018-12-14T00:43:42.467Z,18.37
2018-12-14T00:46:16.371Z,18.77
2018-12-14T00:48:48.484Z,18.30
2018-12-14T00:51:37.160Z,18.40
2018-12-14T00:54:16.948Z,20.40
2018-12-14T00:56:48.561Z,20.43
2018-12-14T00:59:28.976Z,21.03
2018-12-14T01:02:12.977Z,19.63
2018-12-14T01:04:42.035Z,23.00
2018-12-14T01:07:22.734Z,21.53
2018-12-14T01:09:54.090Z,21.97
2018-12-14T01:12:34.362Z,22.33
2018-12-14T01:15:25.325Z,22.67
2018-12-14T01:17:58.880Z,22.57
2018-12-14T01:20:29.938Z,19.90
2018-12-14T01:23:01.454Z,22.77
2018-12-14T01:25:35.418Z,18.67
2018-12-14T01:28:06.281Z,20.27
2018-12-14T01:30:50.601Z,22.60
2018-12-14T01:33:31.065Z,18.70
2018-12-14T01:36:00.724Z,21.30
2018-12-14T01:38:34.675Z,20.60
2018-12-14T01:41:05.534Z,19.70
2018-12-14T01:43:36.901Z,19.70
2018-12-14T01:46:19.290Z,19.33
2018-12-14T01:48:50.815Z,22.17
2018-12-14T01:51:24.397Z,22.10
2018-12-14T01:53:55.673Z,20.63
2018-12-14T01:56:25.350Z,22.07
2018-12-14T01:58:56.722Z,21.10
2018-12-14T02:01:29.941Z,20.17
2018-12-14T02:04:00.794Z,20.93
2018-12-14T02:06:32.468Z,20.57
2018-12-14T02:09:05.934Z,23.60
2018-12-14T02:14:40.043Z,22.83
2018-12-14T02:17:11.359Z,17.50
2018-12-14T02:19:51.687Z,19.43
2018-12-14T02:22:27.893Z,18.03
2018-12-14T02:25:01.105Z,20.63
2018-12-14T02:27:34.250Z,18.93
2018-12-14T02:30:16.924Z,20.97
2018-12-14T02:32:50.968Z,18.77
2018-12-14T02:35:22.140Z,18.73
2018-12-14T02:38:02.740Z,18.33
2018-12-14T02:40:32.013Z,19.60
2018-12-14T02:43:05.856Z,17.60
2018-12-14T02:45:45.930Z,17.83
2018-12-14T02:48:15.389Z,16.90
2018-12-14T02:50:47.073Z,20.53
2018-12-14T02:53:20.973Z,17.67
2018-12-14T02:55:54.260Z,19.77
2018-12-14T02:58:25.100Z,15.87
2018-12-14T03:00:56.482Z,15.83
2018-12-14T03:03:27.815Z,19.37
2018-12-14T03:06:17.948Z,16.50
2018-12-14T03:08:48.811Z,14.10
2018-12-14T03:11:20.469Z,14.97
2018-12-14T03:13:51.330Z,15.53
2018-12-14T03:16:25.066Z,16.97
2018-12-14T03:18:56.062Z,14.70
2018-12-14T03:21:27.784Z,14.57
2018-12-14T03:27:17.314Z,14.17
2018-12-14T03:29:48.032Z,16.70
2018-12-14T03:32:21.891Z,15.67
2018-12-14T03:35:01.816Z,13.60
2018-12-14T03:37:31.541Z,12.90
2018-12-14T03:40:11.544Z,12.83
2018-12-14T03:42:45.307Z,14.33
2018-12-14T03:45:18.698Z,13.50
2018-12-14T03:47:49.495Z,13.37
2018-12-14T03:50:19.109Z,10.73
2018-12-14T03:52:53.904Z,13.10
2018-12-14T03:55:24.934Z,12.23
2018-12-14T03:57:56.763Z,13.37
2018-12-14T04:00:30.754Z,10.37
2018-12-14T04:03:11.217Z,14.00
2018-12-14T04:08:38.156Z,12.07
2018-12-14T04:11:11.658Z,12.93
2018-12-14T04:13:42.890Z,15.13
2018-12-14T04:16:14.078Z,12.23
2018-12-14T04:18:43.454Z,11.83
2018-12-14T04:21:18.367Z,13.57
2018-12-14T04:23:49.094Z,13.27
2018-12-14T04:26:20.486Z,11.73
2018-12-14T04:29:00.382Z,11.10
2018-12-14T04:31:54.429Z,15.83
2018-12-14T04:34:34.978Z,11.40
2018-12-14T04:37:09.776Z,13.00
2018-12-14T04:39:40.846Z,12.33
2018-12-14T04:45:26.481Z,12.33
2018-12-14T04:47:57.181Z,13.73
2018-12-14T04:50:30.960Z,12.93
2018-12-14T04:53:01.919Z,14.47
2018-12-14T04:55:49.728Z,13.93
2018-12-14T04:58:20.603Z,15.77
2018-12-14T05:01:00.853Z,14.87
2018-12-14T05:03:40.919Z,12.73
2018-12-14T05:06:12.335Z,13.83
2018-12-14T05:08:43.160Z,11.47
2018-12-14T05:11:14.326Z,12.50
2018-12-14T05:13:45.889Z,12.50
2018-12-14T05:16:15.146Z,12.57
2018-12-14T05:19:02.976Z,10.73
2018-12-14T05:21:32.510Z,11.03
2018-12-14T05:24:06.873Z,11.97
2018-12-14T05:26:47.191Z,12.23
2018-12-14T05:29:26.824Z,10.90
2018-12-14T05:32:06.854Z,12.03
2018-12-14T05:34:46.850Z,11.67
2018-12-14T05:37:26.550Z,13.23
2018-12-14T05:40:06.191Z,16.30
2018-12-14T05:42:45.904Z,11.83
2018-12-14T05:45:25.551Z,11.90
2018-12-14T05:48:05.361Z,15.23
2018-12-14T05:50:46.302Z,12.30
2018-12-14T05:53:19.718Z,15.33
2018-12-14T05:55:51.005Z,15.70
2018-12-14T05:58:34.728Z,13.50
2018-12-14T06:01:05.762Z,13.00
2018-12-14T06:06:46.120Z,12.73
2018-12-14T06:09:26.303Z,12.53
2018-12-14T06:11:59.470Z,12.83
2018-12-14T06:14:38.932Z,13.73
2018-12-14T06:17:20.816Z,13.37
2018-12-14T06:20:07.310Z,13.90
2018-12-14T06:22:47.583Z,15.07
2018-12-14T06:28:09.337Z,12.90
2018-12-14T06:30:49.083Z,16.30
2018-12-14T06:33:20.103Z,14.57
2018-12-14T06:36:08.451Z,14.27
2018-12-14T06:38:46.273Z,15.10
2018-12-14T06:41:37.208Z,30.97
2018-12-14T06:44:17.434Z,80.37
2018-12-14T06:46:50.791Z,56.43
2018-12-14T06:49:22.125Z,26.60
2018-12-14T06:52:01.821Z,22.23
2018-12-14T06:54:32.667Z,15.40
2018-12-14T06:57:03.598Z,14.83
2018-12-14T06:59:34.349Z,14.97
2018-12-14T07:02:07.795Z,17.93
2018-12-14T07:04:37.781Z,16.33
2018-12-14T07:07:11.312Z,14.27
2018-12-14T07:09:51.726Z,12.63
2018-12-14T07:12:21.893Z,14.80
2018-12-14T07:15:02.294Z,15.50
2018-12-14T07:17:36.461Z,15.90
2018-12-14T07:20:17.224Z,17.73
2018-12-14T07:22:58.039Z,19.23
2018-12-14T07:25:28.815Z,18.57
2018-12-14T07:30:55.271Z,18.87
2018-12-14T07:33:35.082Z,21.90
2018-12-14T07:36:12.933Z,14.93
2018-12-14T07:41:53.190Z,15.30
2018-12-14T07:44:28.527Z,16.80
2018-12-14T07:47:11.747Z,14.03
2018-12-14T07:52:49.957Z,14.80
2018-12-14T07:55:19.530Z,17.10
2018-12-14T07:57:59.668Z,15.70
2018-12-14T08:00:41.546Z,15.10
2018-12-14T08:03:21.336Z,14.97
2018-12-14T08:06:01.205Z,13.93
2018-12-14T08:08:34.147Z,17.50
2018-12-14T08:11:08.524Z,16.07
2018-12-14T08:13:50.276Z,15.17
2018-12-14T08:16:20.986Z,14.30
2018-12-14T08:18:52.172Z,14.80
2018-12-14T08:21:23.873Z,16.83
2018-12-14T08:24:03.520Z,19.00
2018-12-14T08:26:37.330Z,16.47
2018-12-14T08:29:15.304Z,13.90
2018-12-14T08:31:52.669Z,14.97
2018-12-14T08:34:25.379Z,14.53
2018-12-14T08:36:56.340Z,16.47
2018-12-14T08:39:44.850Z,16.30
2018-12-14T08:42:24.920Z,13.73
2018-12-14T08:45:06.846Z,13.27
2018-12-14T08:50:43.049Z,13.77
2018-12-14T08:56:21.485Z,14.97
2018-12-14T08:58:52.995Z,14.43
2018-12-14T09:01:32.678Z,14.53
2018-12-14T09:04:03.703Z,13.80
2018-12-14T09:06:37.006Z,13.10
2018-12-14T09:09:27.578Z,13.97
2018-12-14T09:12:07.690Z,17.23
2018-12-14T09:14:48.042Z,17.60
2018-12-14T09:17:26.054Z,17.67
2018-12-14T09:42:57.421Z,13.63
2018-12-14T09:45:26.922Z,15.77
2018-12-14T09:47:57.661Z,17.77
2018-12-14T09:50:37.524Z,15.13
2018-12-14T09:53:13.240Z,16.43
2018-12-14T09:55:47.186Z,16.13
2018-12-14T09:58:27.421Z,19.43
2018-12-14T10:04:09.810Z,20.50
2018-12-14T10:06:40.831Z,18.77
2018-12-14T10:09:21.350Z,15.33
2018-12-14T10:11:55.177Z,17.87
2018-12-14T10:14:36.076Z,16.97
2018-12-14T10:17:16.804Z,20.77
2018-12-14T10:19:56.703Z,20.70
2018-12-14T10:22:30.200Z,20.57
2018-12-14T10:25:00.830Z,18.67
2018-12-14T10:27:40.988Z,20.33
2018-12-14T10:30:21.785Z,20.67
2018-12-14T10:33:02.774Z,16.13
2018-12-14T10:35:33.383Z,17.37
2018-12-14T10:38:04.506Z,18.03
2018-12-14T10:40:38.516Z,21.97
2018-12-14T10:43:12.463Z,18.07
2018-12-14T10:45:44.200Z,13.50
2018-12-14T10:48:18.281Z,15.13
2018-12-14T10:50:49.508Z,17.13
2018-12-14T10:53:19.366Z,19.33
2018-12-14T10:55:57.069Z,19.70
2018-12-14T10:58:28.126Z,16.13
2018-12-14T11:01:14.358Z,18.33
2018-12-14T11:03:54.354Z,18.80
2018-12-14T11:06:25.448Z,16.33
2018-12-14T11:09:14.220Z,17.27
2018-12-14T11:11:48.045Z,15.90
2018-12-14T11:14:21.539Z,31.63
2018-12-14T11:16:55.485Z,21.43
2018-12-14T11:19:35.800Z,20.83
2018-12-14T11:22:15.450Z,15.87
2018-12-14T11:24:55.221Z,17.60
2018-12-14T11:27:35.035Z,19.10
2018-12-14T11:30:08.480Z,17.57
2018-12-14T11:32:40.069Z,14.40
2018-12-14T11:35:13.410Z,15.17
2018-12-14T11:37:46.825Z,15.83
2018-12-14T11:40:24.836Z,15.40
2018-12-14T11:43:05.013Z,16.50
2018-12-14T11:45:38.222Z,13.20
2018-12-14T11:48:18.572Z,15.00
2018-12-14T11:50:58.179Z,16.00
2018-12-14T11:53:29.365Z,15.97
2018-12-14T11:56:00.848Z,15.67
2018-12-14T11:58:31.696Z,15.27
2018-12-14T12:01:05.725Z,14.97
2018-12-14T12:03:46.082Z,15.13
2018-12-14T12:06:26.134Z,16.30
2018-12-14T12:09:01.344Z,12.67
2018-12-14T12:11:30.671Z,15.63
2018-12-14T12:14:08.083Z,19.23
2018-12-14T12:16:41.865Z,14.33
2018-12-14T12:19:17.980Z,17.57
2018-12-14T12:21:57.501Z,15.67
2018-12-14T12:24:28.505Z,19.03
2018-12-14T12:27:03.098Z,18.13
2018-12-14T12:29:43.515Z,15.30
2018-12-14T12:32:30.303Z,14.50
2018-12-14T12:35:05.103Z,17.67
2018-12-14T12:37:39.487Z,17.90
2018-12-14T12:40:21.015Z,17.17
2018-12-14T12:42:55.635Z,18.17
2018-12-14T13:01:49.858Z,14.33
2018-12-14T13:04:23.436Z,17.27
2018-12-14T13:06:57.159Z,19.30
2018-12-14T13:09:31.017Z,16.80
2018-12-14T13:12:11.223Z,15.23
2018-12-14T13:14:51.842Z,18.43
2018-12-14T13:17:32.891Z,16.27
2018-12-14T13:20:12.418Z,19.57
2018-12-14T13:22:45.800Z,15.90
2018-12-14T13:25:17.265Z,15.53
2018-12-14T13:27:57.065Z,18.30
2018-12-14T13:30:36.964Z,16.80
2018-12-14T13:33:17.701Z,18.43
2018-12-14T13:35:49.172Z,15.93
2018-12-14T13:38:20.746Z,16.13
2018-12-14T13:41:08.935Z,17.27
2018-12-14T13:43:42.968Z,16.80
2018-12-14T13:46:16.630Z,17.23
2018-12-14T13:49:04.388Z,15.73
2018-12-14T13:51:44.694Z,20.27
2018-12-14T13:54:24.443Z,17.43
2018-12-14T13:56:55.302Z,18.97
2018-12-14T13:59:43.718Z,19.70
2018-12-14T14:02:18.446Z,19.43
2018-12-14T14:04:58.651Z,16.80
2018-12-14T14:07:38.494Z,21.27
2018-12-14T14:10:18.269Z,23.87
2018-12-14T14:25:04.901Z,21.30
2018-12-14T14:27:44.966Z,23.47
2018-12-14T14:30:24.494Z,18.40
2018-12-14T14:33:04.158Z,20.00
2018-12-14T14:35:50.604Z,22.90
2018-12-14T14:41:27.139Z,19.63
2018-12-14T14:47:03.791Z,20.63
2018-12-14T14:49:33.207Z,21.93
2018-12-14T14:52:21.476Z,22.97
2018-12-14T14:55:01.855Z,21.43
2018-12-14T14:57:41.666Z,21.43
2018-12-14T15:00:28.138Z,22.20
2018-12-14T15:05:54.288Z,22.27
2018-12-14T15:08:31.748Z,22.00
2018-12-14T15:11:12.148Z,19.87
2018-12-14T15:13:51.692Z,21.90
2018-12-14T15:16:22.506Z,25.53
2018-12-14T15:18:53.197Z,24.97
2018-12-14T15:21:33.124Z,21.17
2018-12-14T15:24:16.907Z,22.90
2018-12-14T15:26:47.497Z,20.67
2018-12-14T15:29:27.465Z,21.83
2018-12-14T15:32:03.434Z,21.77
2018-12-14T15:34:36.544Z,22.93
2018-12-14T15:37:07.897Z,22.53
2018-12-14T15:42:58.415Z,24.43
2018-12-14T15:45:28.041Z,23.93
2018-12-14T15:48:02.299Z,23.93
2018-12-14T15:53:45.292Z,23.63
2018-12-14T15:56:16.463Z,25.07
2018-12-14T15:58:56.823Z,22.87
2018-12-14T16:01:45.164Z,28.60
2018-12-14T16:07:25.962Z,27.47
2018-12-14T16:13:02.651Z,27.30
2018-12-14T16:15:53.552Z,25.83
2018-12-14T16:18:28.567Z,24.47
2018-12-14T16:20:57.575Z,27.80
2018-12-14T16:23:28.370Z,26.47
2018-12-14T16:35:06.113Z,23.10
2018-12-14T16:37:39.516Z,27.93
2018-12-14T16:40:09.016Z,22.47
2018-12-14T16:42:42.266Z,21.80
2018-12-14T16:45:26.417Z,23.67
2018-12-14T16:47:57.964Z,22.90
2018-12-14T16:50:31.749Z,23.73
2018-12-14T16:53:01.144Z,23.27
2018-12-14T16:55:32.010Z,23.27
2018-12-14T16:58:12.844Z,25.50
2018-12-14T17:00:55.139Z,23.33
2018-12-14T17:03:32.953Z,23.43
2018-12-14T17:06:21.571Z,24.03
2018-12-14T17:09:09.519Z,23.53
2018-12-14T17:11:43.102Z,26.23
2018-12-14T17:14:23.397Z,23.57
2018-12-14T17:17:03.756Z,25.63
2018-12-14T17:19:43.431Z,26.37
2018-12-14T17:38:14.669Z,28.10
2018-12-14T17:40:54.791Z,25.43
2018-12-14T17:43:41.399Z,27.00
2018-12-14T17:46:22.143Z,23.87
2018-12-14T17:51:58.285Z,28.47
2018-12-14T17:54:44.883Z,26.50
2018-12-14T17:57:25.226Z,27.83
2018-12-14T18:00:09.659Z,28.43
2018-12-14T18:02:50.395Z,28.63
2018-12-14T18:05:21.635Z,27.77
2018-12-14T18:07:54.810Z,30.83
2018-12-14T18:10:41.518Z,29.17
2018-12-14T18:22:36.297Z,32.23
2018-12-14T18:25:10.378Z,32.47
2018-12-14T18:27:50.384Z,26.83
2018-12-14T18:30:40.619Z,26.13
2018-12-14T18:33:12.711Z,25.43
2018-12-14T18:35:49.856Z,26.20
2018-12-14T18:38:24.879Z,27.17
2018-12-14T18:41:05.174Z,31.17
2018-12-14T18:43:38.631Z,30.50
2018-12-14T18:46:18.835Z,29.07
2018-12-14T18:48:56.298Z,28.20
2018-12-14T18:51:30.323Z,24.77
2018-12-14T18:54:08.125Z,26.67
2018-12-14T18:56:39.303Z,27.63
2018-12-14T18:59:16.816Z,31.13
2018-12-14T19:01:59.023Z,29.20
2018-12-14T19:04:36.542Z,28.70
2018-12-14T19:07:11.511Z,28.83
2018-12-14T19:10:01.119Z,26.90
2018-12-14T19:12:38.963Z,31.40
2018-12-14T19:15:13.971Z,29.20
2018-12-14T19:17:51.643Z,28.00
2018-12-14T19:20:25.372Z,28.23
2018-12-14T19:23:03.204Z,30.40
2018-12-14T19:25:50.664Z,27.17
2018-12-14T19:28:41.302Z,30.83
2018-12-14T19:37:11.648Z,29.83
2018-12-14T19:39:45.128Z,29.40
2018-12-14T19:42:22.223Z,29.63
2018-12-14T19:45:02.716Z,28.83
2018-12-14T19:47:32.014Z,27.13
2018-12-14T19:53:03.184Z,25.73
2018-12-14T19:55:42.892Z,25.80
2018-12-14T19:58:16.024Z,26.10
2018-12-14T20:00:47.386Z,26.07
2018-12-14T20:03:18.264Z,28.83
2018-12-14T20:05:54.700Z,28.70
2018-12-14T20:08:28.400Z,26.37
2018-12-14T20:11:02.422Z,28.27
2018-12-14T20:13:40.123Z,29.10
2018-12-14T20:16:19.924Z,30.40
2018-12-14T20:18:49.184Z,28.93
2018-12-14T20:21:26.302Z,31.50
2018-12-14T20:24:06.219Z,29.67
2018-12-14T20:26:43.579Z,30.33
2018-12-14T20:29:21.429Z,31.23
2018-12-14T20:35:01.702Z,34.03
2018-12-14T20:37:52.098Z,32.50
2018-12-14T20:40:42.766Z,29.27
2018-12-14T20:43:14.340Z,27.63
2018-12-14T20:45:51.047Z,25.83
2018-12-14T20:48:22.397Z,30.97
2018-12-14T20:50:59.985Z,28.23
2018-12-14T20:53:46.639Z,31.40
2018-12-14T20:56:26.783Z,29.63
2018-12-14T21:18:17.664Z,31.30
2018-12-14T21:21:01.112Z,32.13
2018-12-14T21:23:40.805Z,31.17
2018-12-14T21:26:09.952Z,28.87
2018-12-14T21:28:43.140Z,28.53
2018-12-14T21:31:24.256Z,28.13
2018-12-14T21:34:03.789Z,31.33
2018-12-14T21:36:34.671Z,29.73
2018-12-14T21:39:06.350Z,29.73
2018-12-14T21:41:39.653Z,29.60
2018-12-14T21:44:19.963Z,30.40
2018-12-14T21:46:51.089Z,29.83
2018-12-14T21:49:30.966Z,31.60
2018-12-14T21:52:19.163Z,26.77
2018-12-14T21:58:11.303Z,32.70
2018-12-14T22:00:49.341Z,32.87
2018-12-14T22:03:30.171Z,34.20
2018-12-14T22:06:03.586Z,36.17
2018-12-14T22:11:27.076Z,31.43
2018-12-14T22:13:58.144Z,29.83
2018-12-14T22:19:41.878Z,26.37
2018-12-14T22:22:28.583Z,26.80
2018-12-14T22:24:59.965Z,26.97
2018-12-14T22:27:50.163Z,29.63
2018-12-14T22:30:30.395Z,26.67
2018-12-14T22:33:01.344Z,24.93
2018-12-14T22:35:34.424Z,26.83
2018-12-14T22:41:04.707Z,27.60
2018-12-14T22:43:38.625Z,24.77
2018-12-14T22:46:26.199Z,25.23
2018-12-14T22:49:06.548Z,28.17
2018-12-14T22:51:46.210Z,26.50
2018-12-14T22:54:17.341Z,31.40
2018-12-14T22:59:57.360Z,25.87
2018-12-14T23:02:30.879Z,27.83
2018-12-14T23:05:02.374Z,26.10
2018-12-14T23:07:42.126Z,26.53
2018-12-14T23:13:08.269Z,24.90
2018-12-14T23:15:48.518Z,26.57
2018-12-14T23:18:34.952Z,23.83
2018-12-14T23:21:08.877Z,24.03
2018-12-14T23:23:40.206Z,24.10
2018-12-14T23:26:21.921Z,25.43
2018-12-14T23:28:53.139Z,23.70
2018-12-14T23:31:23.712Z,27.73
2018-12-14T23:34:04.340Z,24.07
2018-12-14T23:36:35.187Z,27.10
2018-12-14T23:42:24.210Z,25.57
2018-12-14T23:45:04.620Z,27.37
2018-12-14T23:47:37.949Z,23.30
2018-12-14T23:50:18.286Z,26.13
2018-12-14T23:52:51.437Z,22.63
2018-12-14T23:55:20.976Z,22.77
2018-12-14T23:57:55.050Z,20.67
